Time;durP1;ratioP1;P1;durP2;ratioP2;P2;SDS_P1;SDS_P2;PMS_P1;PMS_P2;Temp;Humidity;BMP_temperature;BMP_pressure;BME280_temperature;BME280_humidity;BME280_pressure;Samples;Min_cycle;Max_cycle;Signal;HPM_P1;HPM_P2
2022/10/17 00:02:21;;;;;;;;;;;10.00;99.90;;;;;;5076123;28;20399;-74
2022/10/17 00:04:47;;;;;;;;;;;9.90;99.90;;;;;;5076065;28;20315;-74
2022/10/17 00:07:12;;;;;;;;;;;9.90;99.90;;;;;;5076014;28;20375;-74
2022/10/17 00:09:41;;;;;;;;;;;9.90;99.90;;;;;;5074704;28;19912;-74
2022/10/17 00:12:06;;;;;;;;;;;9.80;99.90;;;;;;5076858;28;20264;-74
2022/10/17 00:14:32;;;;;;;;;;;9.80;99.90;;;;;;5075951;28;19920;-74
2022/10/17 00:16:58;;;;;;;;;;;9.80;99.90;;;;;;5075854;28;19913;-73
2022/10/17 00:19:23;;;;;;;;;;;9.70;99.90;;;;;;5075794;28;20130;-73
2022/10/17 00:21:49;;;;;;;;;;;9.70;99.90;;;;;;5076056;28;19913;-74
2022/10/17 00:24:14;;;;;;;;;;;9.70;99.90;;;;;;5075709;28;19924;-74
2022/10/17 00:26:40;;;;;;;;;;;9.60;99.90;;;;;;5076057;28;19920;-74
2022/10/17 00:29:05;;;;;;;;;;;9.60;99.90;;;;;;5075742;28;19908;-74
2022/10/17 00:31:31;;;;;;;;;;;9.60;99.90;;;;;;5074305;28;19962;-74
2022/10/17 00:33:57;;;;;;;;;;;9.60;99.90;;;;;;5075861;28;19920;-73
2022/10/17 00:36:23;;;;;;;;;;;9.60;99.90;;;;;;5075452;28;20291;-74
2022/10/17 00:38:51;;;;;;;;;;;9.60;99.90;;;;;;5075672;28;20384;-74
2022/10/17 00:41:17;;;;;;;;;;;9.60;99.90;;;;;;5074723;28;20395;-74
2022/10/17 00:43:57;;;;;;;;;;;9.60;99.90;;;;;;5075464;28;20007;-74
2022/10/17 00:46:24;;;;;;;;;;;9.50;99.90;;;;;;5073998;28;19909;-73
2022/10/17 00:48:51;;;;;;;;;;;9.50;99.90;;;;;;5075597;28;20283;-73
2022/10/17 00:51:17;;;;;;;;;;;9.50;99.90;;;;;;5075486;28;19920;-74
2022/10/17 00:53:43;;;;;;;;;;;9.50;99.90;;;;;;5075728;28;20273;-73
2022/10/17 00:56:09;;;;;;;;;;;9.50;99.90;;;;;;5073760;28;19916;-73
2022/10/17 00:58:34;;;;;;;;;;;9.50;99.90;;;;;;5073735;28;19912;-74
2022/10/17 01:01:00;;;;;;;;;;;9.50;99.90;;;;;;5075615;28;19919;-74
2022/10/17 01:03:26;;;;;;;;;;;9.40;99.90;;;;;;5074955;28;19916;-74
2022/10/17 01:05:51;;;;;;;;;;;9.40;99.90;;;;;;5074105;28;19916;-73
2022/10/17 01:08:17;;;;;;;;;;;9.30;99.90;;;;;;5074780;28;19920;-73
2022/10/17 01:10:42;;;;;;;;;;;9.30;99.90;;;;;;5074880;28;20379;-74
2022/10/17 01:13:23;;;;;;;;;;;9.20;99.90;;;;;;5075535;28;19909;-73
2022/10/17 01:15:58;;;;;;;;;;;9.20;99.90;;;;;;5075072;28;19997;-73
2022/10/17 01:18:37;;;;;;;;;;;9.20;99.90;;;;;;5074931;28;19909;-73
2022/10/17 01:21:14;;;;;;;;;;;9.10;99.90;;;;;;5074913;28;19923;-74
2022/10/17 01:23:40;;;;;;;;;;;9.10;99.90;;;;;;5074597;28;19915;-74
2022/10/17 01:26:21;;;;;;;;;;;9.10;99.90;;;;;;5074587;28;19908;-73
2022/10/17 01:29:06;;;;;;;;;;;9.10;99.90;;;;;;5073169;28;19958;-73
2022/10/17 01:31:37;;;;;;;;;;;9.00;99.90;;;;;;5074747;28;19908;-74
2022/10/17 01:34:07;;;;;;;;;;;9.00;99.90;;;;;;5074765;28;19916;-74
2022/10/17 01:37:01;;;;;;;;;;;8.90;99.90;;;;;;5074293;28;20046;-74
2022/10/17 01:39:38;;;;;;;;;;;8.90;99.90;;;;;;5056829;28;19966;-75
2022/10/17 01:42:12;;;;;;;;;;;8.90;99.90;;;;;;5074252;28;19959;-74
2022/10/17 01:44:41;;;;;;;;;;;8.90;99.90;;;;;;5074663;28;19995;-74
2022/10/17 01:47:08;;;;;;;;;;;8.90;99.90;;;;;;5074443;28;19912;-73
2022/10/17 01:49:36;;;;;;;;;;;8.90;99.90;;;;;;5074133;28;20355;-74
2022/10/17 01:52:05;;;;;;;;;;;8.80;99.90;;;;;;5073502;28;20347;-73
2022/10/17 01:54:49;;;;;;;;;;;8.80;99.90;;;;;;5072708;28;19967;-73
2022/10/17 01:57:33;;;;;;;;;;;8.70;99.90;;;;;;5072680;28;20257;-73
2022/10/17 02:00:00;;;;;;;;;;;8.70;99.90;;;;;;5075202;28;19996;-75
2022/10/17 02:02:26;;;;;;;;;;;8.60;99.90;;;;;;5073847;28;19919;-76
2022/10/17 02:04:52;;;;;;;;;;;8.60;99.90;;;;;;5073935;28;20011;-76
2022/10/17 02:07:18;;;;;;;;;;;8.60;99.90;;;;;;5074110;28;20348;-75
2022/10/17 02:09:43;;;;;;;;;;;8.60;99.90;;;;;;5074322;28;19919;-75
2022/10/17 02:12:09;;;;;;;;;;;8.60;99.90;;;;;;5073881;28;19918;-75
2022/10/17 02:14:53;;;;;;;;;;;8.50;99.90;;;;;;5074002;28;19919;-75
2022/10/17 02:17:28;;;;;;;;;;;8.50;99.90;;;;;;5074033;28;19908;-75
2022/10/17 02:20:08;;;;;;;;;;;8.40;99.90;;;;;;5072328;28;19909;-75
2022/10/17 02:22:43;;;;;;;;;;;8.50;99.90;;;;;;5073954;28;19908;-76
2022/10/17 02:25:08;;;;;;;;;;;8.50;99.90;;;;;;5073637;28;19908;-75
2022/10/17 02:27:34;;;;;;;;;;;8.50;99.90;;;;;;5073583;28;19915;-76
2022/10/17 02:30:05;;;;;;;;;;;8.50;99.90;;;;;;5073529;28;19959;-75
2022/10/17 02:32:34;;;;;;;;;;;8.40;99.90;;;;;;5073661;28;19974;-76
2022/10/17 02:35:01;;;;;;;;;;;8.40;99.90;;;;;;5073731;28;19912;-76
2022/10/17 02:37:28;;;;;;;;;;;8.40;99.90;;;;;;5073790;28;20349;-76
2022/10/17 02:39:56;;;;;;;;;;;8.40;99.90;;;;;;5073534;28;20337;-75
2022/10/17 02:42:23;;;;;;;;;;;8.30;99.90;;;;;;5073707;28;19909;-75
2022/10/17 02:44:49;;;;;;;;;;;8.30;99.90;;;;;;5073690;28;19995;-76
2022/10/17 02:47:22;;;;;;;;;;;8.20;99.90;;;;;;5073451;28;19919;-75
2022/10/17 02:49:51;;;;;;;;;;;8.10;99.90;;;;;;5073354;28;20326;-75
2022/10/17 02:52:27;;;;;;;;;;;8.10;99.90;;;;;;5073633;28;20353;-75
2022/10/17 02:54:59;;;;;;;;;;;8.10;99.90;;;;;;5073570;28;19913;-75
2022/10/17 02:57:47;;;;;;;;;;;8.10;99.90;;;;;;5073673;28;20307;-75
2022/10/17 03:00:14;;;;;;;;;;;8.10;99.90;;;;;;5058615;28;19908;-76
2022/10/17 03:02:41;;;;;;;;;;;8.10;99.90;;;;;;5073266;28;19912;-76
2022/10/17 03:05:07;;;;;;;;;;;8.10;99.90;;;;;;5076758;28;19908;-76
2022/10/17 03:07:32;;;;;;;;;;;8.10;99.90;;;;;;5077180;28;20399;-76
2022/10/17 03:09:58;;;;;;;;;;;8.10;99.90;;;;;;5076083;28;19944;-75
2022/10/17 03:12:23;;;;;;;;;;;8.10;99.90;;;;;;5076437;28;20357;-74
2022/10/17 03:14:49;;;;;;;;;;;8.00;99.90;;;;;;5076755;28;20022;-75
2022/10/17 03:17:15;;;;;;;;;;;8.00;99.90;;;;;;5076965;28;19917;-75
2022/10/17 03:19:40;;;;;;;;;;;8.00;99.90;;;;;;5075910;28;19912;-75
2022/10/17 03:22:06;;;;;;;;;;;7.90;99.90;;;;;;5076682;28;19913;-75
2022/10/17 03:24:31;;;;;;;;;;;7.90;99.90;;;;;;5076635;28;20365;-74
2022/10/17 03:26:57;;;;;;;;;;;7.80;99.90;;;;;;5076660;28;20372;-75
2022/10/17 03:29:23;;;;;;;;;;;7.70;99.90;;;;;;5076544;28;19912;-75
2022/10/17 03:31:48;;;;;;;;;;;7.70;99.90;;;;;;5076495;28;19912;-76
2022/10/17 03:34:16;;;;;;;;;;;7.70;99.90;;;;;;5075561;28;19919;-75
2022/10/17 03:36:42;;;;;;;;;;;7.70;99.90;;;;;;5076277;28;19916;-75
2022/10/17 03:39:07;;;;;;;;;;;7.70;99.90;;;;;;5076213;28;20392;-75
2022/10/17 03:41:34;;;;;;;;;;;7.70;99.90;;;;;;5075093;28;20319;-75
2022/10/17 03:43:59;;;;;;;;;;;7.70;99.90;;;;;;5076258;28;19913;-75
2022/10/17 03:46:25;;;;;;;;;;;7.70;99.90;;;;;;5075143;28;20273;-75
2022/10/17 03:48:51;;;;;;;;;;;7.70;99.90;;;;;;5076183;28;19966;-75
2022/10/17 03:51:16;;;;;;;;;;;7.70;99.90;;;;;;5075965;28;19943;-75
2022/10/17 03:53:42;;;;;;;;;;;7.70;99.90;;;;;;5074984;28;19916;-75
2022/10/17 03:56:18;;;;;;;;;;;7.70;99.90;;;;;;5076040;28;19916;-75
2022/10/17 03:58:44;;;;;;;;;;;7.70;99.90;;;;;;5076079;28;20011;-75
2022/10/17 04:01:11;;;;;;;;;;;7.70;99.90;;;;;;5076076;28;19944;-76
2022/10/17 04:03:38;;;;;;;;;;;7.70;99.90;;;;;;5075980;28;20342;-75
2022/10/17 04:06:04;;;;;;;;;;;7.60;99.90;;;;;;5057780;28;19961;-76
2022/10/17 04:08:30;;;;;;;;;;;7.60;99.90;;;;;;5075896;28;19919;-76
2022/10/17 04:11:00;;;;;;;;;;;7.60;99.90;;;;;;5075876;28;19912;-76
2022/10/17 04:13:25;;;;;;;;;;;7.50;99.90;;;;;;5075874;28;20253;-75
2022/10/17 04:15:58;;;;;;;;;;;7.50;99.90;;;;;;5074738;28;19916;-76
2022/10/17 04:18:24;;;;;;;;;;;7.50;99.90;;;;;;5075599;28;19916;-76
2022/10/17 04:20:50;;;;;;;;;;;7.40;99.90;;;;;;5074527;28;19912;-75
2022/10/17 04:23:15;;;;;;;;;;;7.40;99.90;;;;;;5075152;28;19917;-75
2022/10/17 04:25:41;;;;;;;;;;;7.40;99.90;;;;;;5075202;28;19919;-73
2022/10/17 04:28:06;;;;;;;;;;;7.40;99.90;;;;;;5073806;28;19919;-74
2022/10/17 04:30:32;;;;;;;;;;;7.40;99.90;;;;;;5075359;28;20019;-75
2022/10/17 04:32:57;;;;;;;;;;;7.40;99.90;;;;;;5074653;28;19915;-75
2022/10/17 04:35:23;;;;;;;;;;;7.40;99.90;;;;;;5074623;28;19971;-74
2022/10/17 04:37:48;;;;;;;;;;;7.40;99.90;;;;;;5076076;28;19962;-74
2022/10/17 04:40:14;;;;;;;;;;;7.40;99.90;;;;;;5075384;28;19916;-74
2022/10/17 04:42:40;;;;;;;;;;;7.40;99.90;;;;;;5075428;28;20360;-74
2022/10/17 04:45:05;;;;;;;;;;;7.40;99.90;;;;;;5075575;28;20383;-73
2022/10/17 04:47:31;;;;;;;;;;;7.30;99.90;;;;;;5075256;28;20316;-74
2022/10/17 04:49:57;;;;;;;;;;;7.30;99.90;;;;;;5075545;28;20402;-74
2022/10/17 04:52:24;;;;;;;;;;;7.30;99.90;;;;;;5075324;28;19913;-74
2022/10/17 04:54:49;;;;;;;;;;;7.30;99.90;;;;;;5074069;28;19978;-73
2022/10/17 04:57:15;;;;;;;;;;;7.20;99.90;;;;;;5075827;28;19917;-74
2022/10/17 04:59:40;;;;;;;;;;;7.20;99.90;;;;;;5075064;28;19912;-74
2022/10/17 05:02:06;;;;;;;;;;;7.20;99.90;;;;;;5075096;28;19909;-74
2022/10/17 05:04:32;;;;;;;;;;;7.20;99.90;;;;;;5074943;28;19952;-74
2022/10/17 05:06:57;;;;;;;;;;;7.10;99.90;;;;;;5073919;28;19908;-73
2022/10/17 05:09:23;;;;;;;;;;;7.10;99.90;;;;;;5074714;28;19915;-73
2022/10/17 05:11:48;;;;;;;;;;;7.20;99.90;;;;;;5073564;28;19920;-74
2022/10/17 05:14:14;;;;;;;;;;;7.20;99.90;;;;;;5074410;28;19912;-74
2022/10/17 05:16:40;;;;;;;;;;;7.20;99.90;;;;;;5074665;28;19912;-74
2022/10/17 05:19:05;;;;;;;;;;;7.20;99.90;;;;;;5074623;28;19919;-74
2022/10/17 05:21:31;;;;;;;;;;;7.20;99.90;;;;;;5074978;28;19934;-74
2022/10/17 05:23:57;;;;;;;;;;;7.30;99.90;;;;;;5074612;28;19909;-74
2022/10/17 05:26:23;;;;;;;;;;;7.30;99.90;;;;;;5074722;28;19919;-74
2022/10/17 05:28:51;;;;;;;;;;;7.20;99.90;;;;;;5074569;28;19909;-73
2022/10/17 05:31:16;;;;;;;;;;;7.20;99.90;;;;;;5074835;28;19912;-74
2022/10/17 05:33:42;;;;;;;;;;;7.10;99.90;;;;;;5075228;28;19931;-74
2022/10/17 05:36:08;;;;;;;;;;;7.10;99.90;;;;;;5074970;28;19912;-74
2022/10/17 05:38:34;;;;;;;;;;;7.00;99.90;;;;;;5075382;28;20283;-74
2022/10/17 05:41:00;;;;;;;;;;;7.10;99.90;;;;;;5075330;28;19920;-74
2022/10/17 05:43:26;;;;;;;;;;;7.10;99.90;;;;;;5075816;28;20345;-74
2022/10/17 05:45:52;;;;;;;;;;;7.00;99.90;;;;;;5075479;28;19962;-73
2022/10/17 05:48:17;;;;;;;;;;;7.00;99.90;;;;;;5074582;28;20287;-73
2022/10/17 05:50:43;;;;;;;;;;;7.00;99.90;;;;;;5074389;28;19921;-73
2022/10/17 05:53:09;;;;;;;;;;;7.00;99.90;;;;;;5074413;28;19977;-72
2022/10/17 05:55:34;;;;;;;;;;;7.00;99.90;;;;;;5073972;28;19923;-73
2022/10/17 05:58:00;;;;;;;;;;;7.00;99.90;;;;;;5073962;28;19919;-73
2022/10/17 06:00:26;;;;;;;;;;;6.90;99.90;;;;;;5073831;28;19934;-73
2022/10/17 06:02:52;;;;;;;;;;;6.90;99.90;;;;;;5074191;28;19995;-73
2022/10/17 06:05:18;;;;;;;;;;;6.90;99.90;;;;;;5072607;28;19912;-73
2022/10/17 06:07:43;;;;;;;;;;;6.90;99.90;;;;;;5074127;28;19913;-73
2022/10/17 06:10:11;;;;;;;;;;;6.90;99.90;;;;;;5073778;28;19974;-72
2022/10/17 06:12:37;;;;;;;;;;;6.90;99.90;;;;;;5074110;28;20316;-72
2022/10/17 06:15:03;;;;;;;;;;;7.00;99.90;;;;;;5073916;28;19963;-73
2022/10/17 06:17:29;;;;;;;;;;;7.00;99.90;;;;;;5073756;28;19920;-73
2022/10/17 06:19:55;;;;;;;;;;;7.00;99.90;;;;;;5072327;28;19913;-73
2022/10/17 06:22:20;;;;;;;;;;;7.10;99.90;;;;;;5073646;28;19916;-73
2022/10/17 06:24:46;;;;;;;;;;;7.10;99.90;;;;;;5073618;28;19913;-73
2022/10/17 06:27:11;;;;;;;;;;;7.10;99.90;;;;;;5073619;28;19916;-72
2022/10/17 06:29:37;;;;;;;;;;;7.10;99.90;;;;;;5073531;28;19912;-73
2022/10/17 06:32:02;;;;;;;;;;;7.10;99.90;;;;;;5073591;28;19928;-72
2022/10/17 06:34:28;;;;;;;;;;;7.10;99.90;;;;;;5073441;28;20265;-72
2022/10/17 06:36:53;;;;;;;;;;;7.20;99.90;;;;;;5073559;28;20418;-72
2022/10/17 06:39:19;;;;;;;;;;;7.20;99.90;;;;;;5072828;28;20284;-73
2022/10/17 06:41:45;;;;;;;;;;;7.30;99.90;;;;;;5073522;28;20291;-73
2022/10/17 06:44:10;;;;;;;;;;;7.30;99.90;;;;;;5073735;28;19913;-73
2022/10/17 06:46:39;;;;;;;;;;;7.40;99.90;;;;;;5073685;28;19947;-73
2022/10/17 06:49:05;;;;;;;;;;;7.50;99.90;;;;;;5073328;28;19909;-73
2022/10/17 06:51:33;;;;;;;;;;;7.60;99.90;;;;;;5072143;28;20261;-73
2022/10/17 06:53:59;;;;;;;;;;;7.70;99.90;;;;;;5073644;28;19914;-72
2022/10/17 06:56:24;;;;;;;;;;;7.70;99.90;;;;;;5073251;28;20015;-72
2022/10/17 06:58:51;;;;;;;;;;;7.90;99.90;;;;;;5073196;28;19962;-73
2022/10/17 07:01:17;;;;;;;;;;;8.00;99.90;;;;;;5073260;28;19931;-72
2022/10/17 07:03:42;;;;;;;;;;;8.00;99.90;;;;;;5073291;28;19913;-72
2022/10/17 07:06:11;;;;;;;;;;;8.20;99.90;;;;;;5073528;28;19913;-72
2022/10/17 07:08:37;;;;;;;;;;;8.20;99.90;;;;;;5071845;28;20003;-72
2022/10/17 07:11:10;;;;;;;;;;;8.40;99.90;;;;;;5073221;28;19951;-72
2022/10/17 07:13:36;;;;;;;;;;;8.50;99.90;;;;;;5073200;28;19913;-72
2022/10/17 07:16:01;;;;;;;;;;;8.60;99.90;;;;;;5073114;28;20291;-73
2022/10/17 07:18:27;;;;;;;;;;;8.70;99.90;;;;;;5073164;28;19935;-73
2022/10/17 07:20:53;;;;;;;;;;;8.80;99.90;;;;;;5073125;28;19917;-73
2022/10/17 07:23:19;;;;;;;;;;;9.00;99.90;;;;;;5073161;28;19952;-72
2022/10/17 07:25:45;;;;;;;;;;;9.20;99.90;;;;;;5073427;28;20023;-73
2022/10/17 07:28:10;;;;;;;;;;;9.30;99.90;;;;;;5072986;28;19958;-73
2022/10/17 07:30:36;;;;;;;;;;;9.40;99.90;;;;;;5073258;28;19931;-73
2022/10/17 07:33:01;;;;;;;;;;;9.50;99.90;;;;;;5072972;28;19913;-73
2022/10/17 07:35:27;;;;;;;;;;;9.60;99.90;;;;;;5072967;28;20007;-72
2022/10/17 07:37:52;;;;;;;;;;;9.70;99.90;;;;;;5072959;28;20283;-73
2022/10/17 07:40:18;;;;;;;;;;;9.80;99.90;;;;;;5072767;28;20353;-73
2022/10/17 07:42:43;;;;;;;;;;;9.80;99.90;;;;;;5072827;28;20380;-73
2022/10/17 07:45:09;;;;;;;;;;;9.90;99.90;;;;;;5072865;28;19935;-72
2022/10/17 07:47:35;;;;;;;;;;;10.00;99.90;;;;;;5072885;28;19920;-72
2022/10/17 07:50:01;;;;;;;;;;;10.10;99.90;;;;;;5072850;28;19995;-72
2022/10/17 07:52:26;;;;;;;;;;;10.20;99.90;;;;;;5076876;28;19965;-72
2022/10/17 07:54:52;;;;;;;;;;;10.30;99.90;;;;;;5076550;28;19916;-72
2022/10/17 07:57:17;;;;;;;;;;;10.50;99.90;;;;;;5074961;28;19912;-73
2022/10/17 07:59:43;;;;;;;;;;;10.60;99.90;;;;;;5076172;28;19919;-73
2022/10/17 08:02:21;;;;;;;;;;;10.70;99.90;;;;;;5076749;28;19943;-73
2022/10/17 08:04:46;;;;;;;;;;;10.80;99.90;;;;;;5076211;28;20328;-72
2022/10/17 08:07:12;;;;;;;;;;;11.00;99.90;;;;;;5076715;28;20357;-73
2022/10/17 08:09:38;;;;;;;;;;;11.10;99.90;;;;;;5076011;28;19912;-73
2022/10/17 08:12:03;;;;;;;;;;;11.30;99.90;;;;;;5076025;28;19970;-73
2022/10/17 08:14:29;;;;;;;;;;;11.50;99.90;;;;;;5075933;28;19959;-74
2022/10/17 08:16:54;;;;;;;;;;;11.60;99.90;;;;;;5076178;28;19959;-73
2022/10/17 08:19:20;;;;;;;;;;;11.80;99.90;;;;;;5074847;28;19974;-73
2022/10/17 08:21:45;;;;;;;;;;;11.90;99.90;;;;;;5076115;28;19912;-74
2022/10/17 08:24:11;;;;;;;;;;;12.10;99.90;;;;;;5075768;28;19913;-74
2022/10/17 08:26:37;;;;;;;;;;;12.20;99.90;;;;;;5076066;28;19909;-73
2022/10/17 08:29:02;;;;;;;;;;;12.30;99.90;;;;;;5075798;28;19935;-73
2022/10/17 08:31:28;;;;;;;;;;;12.40;99.90;;;;;;5075702;28;19913;-74
2022/10/17 08:33:54;;;;;;;;;;;12.50;99.90;;;;;;5075598;28;19999;-73
2022/10/17 08:36:20;;;;;;;;;;;12.70;99.90;;;;;;5075763;28;19917;-74
2022/10/17 08:38:45;;;;;;;;;;;12.80;99.90;;;;;;5075626;28;20459;-73
2022/10/17 08:41:19;;;;;;;;;;;12.80;99.90;;;;;;5075369;28;20003;-74
2022/10/17 08:43:55;;;;;;;;;;;12.90;99.90;;;;;;5074212;28;20340;-74
2022/10/17 08:46:20;;;;;;;;;;;13.10;99.90;;;;;;5075960;28;19939;-73
2022/10/17 08:48:46;;;;;;;;;;;13.20;99.90;;;;;;5075578;28;19912;-74
2022/10/17 08:51:23;;;;;;;;;;;13.20;99.90;;;;;;5075237;28;19909;-74
2022/10/17 08:54:07;;;;;;;;;;;13.40;99.90;;;;;;5075250;28;19909;-74
2022/10/17 08:56:41;;;;;;;;;;;13.50;99.90;;;;;;5075072;28;20368;-73
2022/10/17 08:59:11;;;;;;;;;;;13.60;99.90;;;;;;5075042;28;19908;-73
2022/10/17 09:01:58;;;;;;;;;;;13.70;99.90;;;;;;5075135;28;20379;-73
2022/10/17 09:04:32;;;;;;;;;;;13.80;99.90;;;;;;5075533;28;20299;-73
2022/10/17 09:07:07;;;;;;;;;;;14.00;99.90;;;;;;5074942;28;19912;-74
2022/10/17 09:09:51;;;;;;;;;;;14.00;99.90;;;;;;5074946;28;19915;-73
2022/10/17 09:12:19;;;;;;;;;;;14.10;99.90;;;;;;5074829;28;19944;-73
2022/10/17 09:14:53;;;;;;;;;;;14.20;99.90;;;;;;5074734;28;19909;-74
2022/10/17 09:17:41;;;;;;;;;;;14.30;99.90;;;;;;5075054;28;20007;-74
2022/10/17 09:20:12;;;;;;;;;;;14.40;99.90;;;;;;5074554;28;20276;-73
2022/10/17 09:22:42;;;;;;;;;;;14.50;99.90;;;;;;5074630;28;19908;-74
2022/10/17 09:25:12;;;;;;;;;;;14.60;99.90;;;;;;5074586;28;19908;-74
2022/10/17 09:27:43;;;;;;;;;;;14.70;99.90;;;;;;5074851;28;19909;-73
2022/10/17 09:30:24;;;;;;;;;;;14.80;99.90;;;;;;5073142;28;19908;-73
2022/10/17 09:32:50;;;;;;;;;;;14.90;99.90;;;;;;5074515;28;19958;-74
2022/10/17 09:35:16;;;;;;;;;;;15.00;99.90;;;;;;5074334;28;19916;-74
2022/10/17 09:37:42;;;;;;;;;;;15.10;99.90;;;;;;5074622;28;19909;-74
2022/10/17 09:40:18;;;;;;;;;;;15.20;99.90;;;;;;5074195;28;19920;-73
2022/10/17 09:42:44;;;;;;;;;;;15.40;99.90;;;;;;5074295;28;19912;-74
2022/10/17 09:45:15;;;;;;;;;;;15.50;99.90;;;;;;5074170;28;19999;-74
2022/10/17 09:47:56;;;;;;;;;;;15.60;99.90;;;;;;5074427;28;19995;-74
2022/10/17 09:50:25;;;;;;;;;;;15.70;99.90;;;;;;5074085;28;19952;-73
2022/10/17 09:52:52;;;;;;;;;;;15.80;99.90;;;;;;5074345;28;19908;-74
2022/10/17 09:55:17;;;;;;;;;;;15.90;99.90;;;;;;5072466;28;19916;-73
2022/10/17 09:57:53;;;;;;;;;;;16.00;99.90;;;;;;5073484;28;19934;-73
2022/10/17 10:00:27;;;;;;;;;;;16.00;99.90;;;;;;5072494;28;19970;-73
2022/10/17 10:03:09;;;;;;;;;;;16.20;99.90;;;;;;5074411;28;19999;-73
2022/10/17 10:05:35;;;;;;;;;;;16.30;99.90;;;;;;5074029;28;19916;-74
2022/10/17 10:08:02;;;;;;;;;;;16.30;99.90;;;;;;5071734;28;19909;-73
2022/10/17 10:10:29;;;;;;;;;;;16.40;99.90;;;;;;5074026;28;19913;-73
2022/10/17 10:13:02;;;;;;;;;;;16.60;99.90;;;;;;5073159;28;19943;-74
2022/10/17 10:15:33;;;;;;;;;;;16.60;99.90;;;;;;5074014;28;19995;-74
2022/10/17 10:17:58;;;;;;;;;;;16.70;99.90;;;;;;5074033;28;19917;-74
2022/10/17 10:20:34;;;;;;;;;;;16.80;99.90;;;;;;5073673;28;20029;-73
2022/10/17 10:23:04;;;;;;;;;;;16.90;99.90;;;;;;5073655;28;19909;-74
2022/10/17 10:25:29;;;;;;;;;;;17.00;99.90;;;;;;5073633;28;20365;-74
2022/10/17 10:27:55;;;;;;;;;;;17.10;99.90;;;;;;5073641;28;19942;-74
2022/10/17 10:30:27;;;;;;;;;;;17.20;99.90;;;;;;5072652;28;19944;-73
2022/10/17 10:32:53;;;;;;;;;;;17.30;99.90;;;;;;5073939;28;19915;-73
2022/10/17 10:35:20;;;;;;;;;;;17.40;99.90;;;;;;5073510;28;19917;-73
2022/10/17 10:37:48;;;;;;;;;;;17.50;99.90;;;;;;5073757;28;20003;-74
2022/10/17 10:40:18;;;;;;;;;;;17.60;99.90;;;;;;5073365;28;19923;-74
2022/10/17 10:42:48;;;;;;;;;;;17.70;99.90;;;;;;5074008;28;20264;-74
2022/10/17 10:45:20;;;;;;;;;;;17.80;99.90;;;;;;5073718;28;20262;-73
2022/10/17 10:47:49;;;;;;;;;;;17.90;99.90;;;;;;5073443;28;19954;-74
2022/10/17 10:50:15;;;;;;;;;;;18.00;99.90;;;;;;5073353;28;19909;-73
2022/10/17 10:52:44;;;;;;;;;;;18.10;99.90;;;;;;5073407;28;19931;-74
2022/10/17 10:55:14;;;;;;;;;;;18.10;99.90;;;;;;5073539;28;19962;-74
2022/10/17 10:57:43;;;;;;;;;;;18.20;99.90;;;;;;5078238;28;19948;-74
2022/10/17 11:00:14;;;;;;;;;;;18.30;99.90;;;;;;5073248;28;19999;-73
2022/10/17 11:02:56;;;;;;;;;;;18.40;99.90;;;;;;5073253;28;20272;-73
2022/10/17 11:05:40;;;;;;;;;;;18.50;99.90;;;;;;5074093;28;19909;-74
2022/10/17 11:08:13;;;;;;;;;;;18.60;99.90;;;;;;5073778;28;19919;-73
2022/10/17 11:10:39;;;;;;;;;;;18.60;99.90;;;;;;5073192;28;19995;-74
2022/10/17 11:13:18;;;;;;;;;;;18.80;99.90;;;;;;5073153;28;19955;-74
2022/10/17 11:15:56;;;;;;;;;;;18.80;99.90;;;;;;5073360;28;19958;-74
2022/10/17 11:18:24;;;;;;;;;;;18.90;99.90;;;;;;5072101;28;19909;-73
2022/10/17 11:20:54;;;;;;;;;;;19.00;99.90;;;;;;5073064;28;19909;-74
2022/10/17 11:23:23;;;;;;;;;;;19.10;99.90;;;;;;5073633;28;20361;-74
2022/10/17 11:25:52;;;;;;;;;;;19.10;99.90;;;;;;5076290;28;20060;-74
2022/10/17 11:28:19;;;;;;;;;;;19.20;99.90;;;;;;5076775;28;19916;-73
2022/10/17 11:30:50;;;;;;;;;;;19.30;99.90;;;;;;5076793;28;19908;-73
2022/10/17 11:33:24;;;;;;;;;;;19.40;99.90;;;;;;5077344;28;19919;-73
2022/10/17 11:35:51;;;;;;;;;;;19.50;99.90;;;;;;5076958;28;19913;-74
2022/10/17 11:38:20;;;;;;;;;;;19.50;99.90;;;;;;5076207;28;20284;-73
2022/10/17 11:40:50;;;;;;;;;;;19.60;99.90;;;;;;5075201;28;19920;-72
2022/10/17 11:43:31;;;;;;;;;;;19.70;99.90;;;;;;5076278;28;20380;-70
2022/10/17 11:46:17;;;;;;;;;;;19.80;99.90;;;;;;5069156;28;20368;-71
2022/10/17 11:49:03;;;;;;;;;;;19.90;99.90;;;;;;5076305;28;19916;-71
2022/10/17 11:51:30;;;;;;;;;;;20.00;99.90;;;;;;5076478;28;20265;-71
2022/10/17 11:54:02;;;;;;;;;;;20.10;99.90;;;;;;5076018;28;20106;-70
2022/10/17 11:56:46;;;;;;;;;;;20.20;99.90;;;;;;5076488;28;20356;-70
2022/10/17 11:59:21;;;;;;;;;;;20.30;99.90;;;;;;5074940;28;20381;-70
2022/10/17 12:01:51;;;;;;;;;;;20.40;99.90;;;;;;5075669;28;19912;-71
2022/10/17 12:04:22;;;;;;;;;;;20.50;99.90;;;;;;5076179;28;20343;-71
2022/10/17 12:07:08;;;;;;;;;;;20.60;98.60;;;;;;5074173;28;19967;-71
2022/10/17 12:09:40;;;;;;;;;;;20.60;99.10;;;;;;5066196;28;19913;-71
2022/10/17 12:12:06;;;;;;;;;;;20.80;99.50;;;;;;5069499;28;19942;-70
2022/10/17 12:14:38;;;;;;;;;;;20.80;98.80;;;;;;5074640;28;19916;-71
2022/10/17 12:17:21;;;;;;;;;;;20.90;98.80;;;;;;5075905;28;19978;-71
2022/10/17 12:19:47;;;;;;;;;;;21.00;98.10;;;;;;5075861;28;19943;-70
2022/10/17 12:22:16;;;;;;;;;;;21.00;99.50;;;;;;5074121;28;20008;-71
2022/10/17 12:24:43;;;;;;;;;;;21.10;99.90;;;;;;5076154;28;19947;-71
2022/10/17 12:27:22;;;;;;;;;;;21.30;99.20;;;;;;5076995;28;19930;-71
2022/10/17 12:29:49;;;;;;;;;;;21.40;99.90;;;;;;5072640;28;19912;-70
2022/10/17 12:32:15;;;;;;;;;;;21.50;98.30;;;;;;5107108;28;19916;-70
2022/10/17 12:34:50;;;;;;;;;;;21.50;97.10;;;;;;5077312;28;20317;-70
2022/10/17 12:37:35;;;;;;;;;;;21.60;97.50;;;;;;5074828;28;19999;-71
2022/10/17 12:40:01;;;;;;;;;;;21.60;97.10;;;;;;5075227;28;20300;-70
2022/10/17 12:42:31;;;;;;;;;;;21.70;97.80;;;;;;5074550;28;19927;-71
2022/10/17 12:44:56;;;;;;;;;;;21.80;95.70;;;;;;5075360;28;19913;-71
2022/10/17 12:47:36;;;;;;;;;;;21.80;94.00;;;;;;5075742;28;20007;-71
2022/10/17 12:50:03;;;;;;;;;;;21.80;96.00;;;;;;5075270;28;20273;-70
2022/10/17 12:52:31;;;;;;;;;;;21.90;95.10;;;;;;5075934;28;20003;-71
2022/10/17 12:54:59;;;;;;;;;;;22.00;96.30;;;;;;5074330;28;20597;-70
2022/10/17 12:57:43;;;;;;;;;;;22.20;96.50;;;;;;5074553;28;19908;-71
2022/10/17 13:00:15;;;;;;;;;;;22.30;96.20;;;;;;5075075;28;19962;-71
2022/10/17 13:02:41;;;;;;;;;;;22.40;95.40;;;;;;5075711;28;19994;-71
2022/10/17 13:05:12;;;;;;;;;;;22.50;94.90;;;;;;5075251;28;19912;-71
2022/10/17 13:07:40;;;;;;;;;;;22.60;95.10;;;;;;5075022;28;19908;-71
2022/10/17 13:10:07;;;;;;;;;;;22.70;93.00;;;;;;5074742;28;19913;-71
2022/10/17 13:12:35;;;;;;;;;;;22.80;92.50;;;;;;5073892;28;20334;-71
2022/10/17 13:15:03;;;;;;;;;;;22.90;92.40;;;;;;5074798;28;19916;-71
2022/10/17 13:17:29;;;;;;;;;;;23.00;91.10;;;;;;5074775;28;19913;-71
2022/10/17 13:19:55;;;;;;;;;;;23.10;89.40;;;;;;5074615;28;19954;-70
2022/10/17 13:22:29;;;;;;;;;;;23.20;85.00;;;;;;5073691;28;19924;-70
2022/10/17 13:25:06;;;;;;;;;;;23.30;87.30;;;;;;5074501;28;19908;-70
2022/10/17 13:27:32;;;;;;;;;;;23.40;84.40;;;;;;5074442;28;20372;-70
2022/10/17 13:29:59;;;;;;;;;;;23.50;86.00;;;;;;5073788;28;20368;-70
2022/10/17 13:32:25;;;;;;;;;;;23.60;86.40;;;;;;5074507;28;19999;-70
2022/10/17 13:35:10;;;;;;;;;;;23.60;85.10;;;;;;5073159;28;20335;-70
2022/10/17 13:37:38;;;;;;;;;;;23.80;87.70;;;;;;5072906;28;20268;-70
2022/10/17 13:40:03;;;;;;;;;;;23.80;86.80;;;;;;5073957;28;19979;-70
2022/10/17 13:42:34;;;;;;;;;;;23.80;86.50;;;;;;5074203;28;20372;-70
2022/10/17 13:45:00;;;;;;;;;;;23.80;88.70;;;;;;5074265;28;19912;-70
2022/10/17 13:47:27;;;;;;;;;;;23.80;89.30;;;;;;5073801;28;19917;-70
2022/10/17 13:49:53;;;;;;;;;;;23.90;89.40;;;;;;5073820;28;19958;-70
2022/10/17 13:52:21;;;;;;;;;;;23.90;88.60;;;;;;5074592;28;19935;-70
2022/10/17 13:54:49;;;;;;;;;;;23.90;89.90;;;;;;5073634;28;20387;-70
2022/10/17 13:57:29;;;;;;;;;;;23.90;88.10;;;;;;5071845;28;19920;-70
2022/10/17 13:59:56;;;;;;;;;;;23.90;88.40;;;;;;5072683;28;19915;-70
2022/10/17 14:02:23;;;;;;;;;;;23.90;88.10;;;;;;5077826;28;19958;-70
2022/10/17 14:05:07;;;;;;;;;;;23.90;87.90;;;;;;5073551;28;19970;-70
2022/10/17 14:07:39;;;;;;;;;;;23.90;85.30;;;;;;5057423;28;19913;-70
2022/10/17 14:10:05;;;;;;;;;;;23.90;83.00;;;;;;5071145;28;19913;-70
2022/10/17 14:12:32;;;;;;;;;;;23.90;83.10;;;;;;5074112;28;19909;-70
2022/10/17 14:14:57;;;;;;;;;;;23.90;83.00;;;;;;5073686;28;19909;-70
2022/10/17 14:17:26;;;;;;;;;;;23.90;83.40;;;;;;5055720;28;20295;-70
2022/10/17 14:20:14;;;;;;;;;;;23.90;82.10;;;;;;5055479;28;19913;-70
2022/10/17 14:22:40;;;;;;;;;;;23.90;81.20;;;;;;5050879;28;20355;-71
2022/10/17 14:25:25;;;;;;;;;;;23.90;82.70;;;;;;5054335;28;19955;-70
2022/10/17 14:27:54;;;;;;;;;;;24.00;85.20;;;;;;5073939;28;19915;-71
2022/10/17 14:30:25;;;;;;;;;;;23.90;83.70;;;;;;5073466;28;19908;-70
2022/10/17 14:32:53;;;;;;;;;;;23.90;82.80;;;;;;5073243;28;19987;-70
2022/10/17 14:35:19;;;;;;;;;;;23.90;80.60;;;;;;5072529;28;19913;-70